createdAt,value
2022-09-10T00:01:32.342Z,98446.34
2022-09-10T00:05:43.095Z,98440.75
2022-09-10T00:09:45.610Z,98436.97
2022-09-10T00:13:49.435Z,98443.63
2022-09-10T00:17:51.427Z,98433.16
2022-09-10T00:21:53.478Z,98431.09
2022-09-10T00:25:57.883Z,98433.94
2022-09-10T00:30:00.905Z,98432.03
2022-09-10T00:34:05.889Z,98436.47
2022-09-10T00:38:09.936Z,98431.41
2022-09-10T00:42:12.202Z,98435.31
2022-09-10T00:46:19.546Z,98441.63
2022-09-10T00:50:32.235Z,98438.16
2022-09-10T00:54:37.306Z,98431.81
2022-09-10T00:58:39.524Z,98439.91
2022-09-10T01:02:42.273Z,98433.72
2022-09-10T01:06:46.539Z,98436.44
2022-09-10T01:11:23.083Z,98432.44
2022-09-10T01:15:41.116Z,98436.38
2022-09-10T01:20:15.162Z,98437.50
2022-09-10T01:24:29.938Z,98437.31
2022-09-10T01:28:56.040Z,98436.38
2022-09-10T01:33:50.773Z,98437.50
2022-09-10T01:38:08.381Z,98432.25
2022-09-10T01:42:10.569Z,98445.38
2022-09-10T01:46:21.895Z,98443.28
2022-09-10T01:50:35.581Z,98443.91
2022-09-10T01:55:03.907Z,98451.03
2022-09-10T01:59:29.264Z,98446.84
2022-09-10T02:03:36.332Z,98452.69
2022-09-10T02:07:39.801Z,98442.06
2022-09-10T02:11:58.009Z,98441.91
2022-09-10T02:16:38.031Z,98433.47
2022-09-10T02:20:41.942Z,98437.38
2022-09-10T02:24:46.817Z,98438.00
2022-09-10T02:28:49.759Z,98421.63
2022-09-10T02:32:52.134Z,98415.88
2022-09-10T02:36:57.920Z,98417.72
2022-09-10T02:41:00.265Z,98406.88
2022-09-10T02:45:02.684Z,98417.91
2022-09-10T02:49:06.581Z,98417.28
2022-09-10T02:53:13.468Z,98416.78
2022-09-10T02:57:15.954Z,98415.13
2022-09-10T03:01:21.239Z,98423.78
2022-09-10T03:05:39.034Z,98432.75
2022-09-10T03:09:41.242Z,98439.69
2022-09-10T03:13:46.022Z,98423.69
2022-09-10T03:17:48.891Z,98425.09
2022-09-10T03:21:51.125Z,98427.03
2022-09-10T03:25:54.690Z,98413.81
2022-09-10T03:30:00.917Z,98423.16
2022-09-10T03:34:09.060Z,98422.53
2022-09-10T03:38:41.620Z,98432.69
2022-09-10T03:43:07.164Z,98433.34
2022-09-10T03:47:18.487Z,98449.16
2022-09-10T03:51:31.642Z,98453.25
2022-09-10T03:55:34.261Z,98441.19
2022-09-10T03:59:37.126Z,98442.47
2022-09-10T04:03:39.425Z,98450.94
2022-09-10T04:07:44.164Z,98445.06
2022-09-10T04:11:49.003Z,98446.47
2022-09-10T04:15:51.527Z,98441.69
2022-09-10T04:19:53.721Z,98447.56
2022-09-10T04:23:56.723Z,98433.47
2022-09-10T04:28:01.998Z,98431.97
2022-09-10T04:32:06.711Z,98431.38
2022-09-10T04:36:13.249Z,98438.00
2022-09-10T04:40:18.951Z,98448.94
2022-09-10T04:44:24.820Z,98465.88
2022-09-10T04:48:27.095Z,98464.28
2022-09-10T04:52:30.634Z,98461.63
2022-09-10T04:56:33.598Z,98459.47
2022-09-10T05:00:35.781Z,98453.63
2022-09-10T05:04:40.227Z,98462.88
2022-09-10T05:08:42.978Z,98470.53
2022-09-10T05:12:45.896Z,98471.34
2022-09-10T05:16:48.493Z,98480.00
2022-09-10T05:20:52.440Z,98476.63
2022-09-10T05:24:55.450Z,98469.34
2022-09-10T05:28:59.833Z,98472.53
2022-09-10T05:33:02.899Z,98487.94
2022-09-10T05:37:08.857Z,98475.53
2022-09-10T05:41:12.244Z,98471.72
2022-09-10T05:45:20.405Z,98476.28
2022-09-10T05:49:22.838Z,98481.44
2022-09-10T05:53:26.261Z,98488.88
2022-09-10T05:57:29.027Z,98485.72
2022-09-10T06:01:32.137Z,98474.34
2022-09-10T06:05:35.844Z,98485.56
2022-09-10T06:09:39.015Z,98479.41
2022-09-10T06:13:56.537Z,98487.31
2022-09-10T06:17:59.516Z,98487.41
2022-09-10T06:22:02.761Z,98489.84
2022-09-10T06:26:14.913Z,98479.56
2022-09-10T06:30:17.635Z,98495.78
2022-09-10T06:34:23.363Z,98490.47
2022-09-10T06:38:32.442Z,98485.09
2022-09-10T06:42:36.312Z,98485.44
2022-09-10T06:47:45.946Z,98488.03
2022-09-10T06:51:22.408Z,98481.69
2022-09-10T06:55:29.090Z,98487.09
2022-09-10T06:59:32.202Z,98485.22
2022-09-10T07:03:37.698Z,98485.38
2022-09-10T07:07:41.127Z,98481.56
2022-09-10T07:11:44.356Z,98488.53
2022-09-10T07:15:49.770Z,98491.69
2022-09-10T07:19:52.455Z,98495.16
2022-09-10T07:24:10.948Z,98498.75
2022-09-10T07:28:18.191Z,98498.34
2022-09-10T07:32:22.559Z,98498.09
2022-09-10T07:36:31.301Z,98497.69
2022-09-10T07:40:36.110Z,98496.31
2022-09-10T07:44:38.668Z,98500.75
2022-09-10T07:48:42.707Z,98501.00
2022-09-10T07:52:47.470Z,98506.41
2022-09-10T07:56:49.895Z,98501.72
2022-09-10T08:00:52.514Z,98499.56
2022-09-10T08:04:54.866Z,98502.53
2022-09-10T08:08:57.727Z,98503.81
2022-09-10T08:13:00.424Z,98509.03
2022-09-10T08:17:02.754Z,98499.78
2022-09-10T08:21:07.629Z,98500.03
2022-09-10T08:25:10.732Z,98502.97
2022-09-10T08:29:13.768Z,98509.84
2022-09-10T08:33:16.928Z,98503.41
2022-09-10T08:37:19.229Z,98496.25
2022-09-10T08:41:40.938Z,98512.41
2022-09-10T08:45:51.103Z,98503.81
2022-09-10T08:50:00.422Z,98510.16
2022-09-10T08:54:13.994Z,98505.97
2022-09-10T08:58:23.362Z,98507.66
2022-09-10T09:02:49.589Z,98500.81
2022-09-10T09:07:01.494Z,98505.69
2022-09-10T09:11:23.858Z,98503.31
2022-09-10T09:15:59.621Z,98493.94
2022-09-10T09:20:23.735Z,98497.13
2022-09-10T09:24:45.908Z,98496.69
2022-09-10T09:29:19.088Z,98494.72
2022-09-10T09:33:25.127Z,98489.34
2022-09-10T09:37:31.379Z,98487.38
2022-09-10T09:42:07.114Z,98495.34
2022-09-10T09:46:16.675Z,98471.31
2022-09-10T09:50:21.578Z,98474.56
2022-09-10T09:58:52.246Z,98464.00
2022-09-10T10:02:54.823Z,98466.72
2022-09-10T10:06:59.519Z,98464.44
2022-09-10T10:11:03.326Z,98463.00
2022-09-10T10:15:05.930Z,98443.16
2022-09-10T10:19:37.325Z,98446.13
2022-09-10T10:23:42.246Z,98444.09
2022-09-10T10:27:46.427Z,98431.88
2022-09-10T10:31:50.900Z,98435.50
2022-09-10T10:36:32.860Z,98436.88
2022-09-10T10:41:13.147Z,98441.00
2022-09-10T10:45:37.050Z,98434.38
2022-09-10T10:49:57.766Z,98424.28
2022-09-10T10:54:07.482Z,98431.97
2022-09-10T10:58:35.472Z,98446.31
2022-09-10T11:02:50.154Z,98447.41
2022-09-10T11:07:08.405Z,98449.34
2022-09-10T11:11:18.840Z,98443.31
2022-09-10T11:15:55.386Z,98440.34
2022-09-10T11:20:27.925Z,98437.00
2022-09-10T11:24:42.664Z,98451.47
2022-09-10T11:28:54.782Z,98442.28
2022-09-10T11:33:16.122Z,98439.34
2022-09-10T11:37:46.227Z,98440.66
2022-09-10T11:41:54.789Z,98437.63
2022-09-10T11:46:05.900Z,98423.47
2022-09-10T11:50:23.134Z,98419.56
2022-09-10T11:54:35.962Z,98415.81
2022-09-10T11:58:41.049Z,98406.28
2022-09-10T12:03:12.265Z,98416.78
2022-09-10T12:07:40.077Z,98405.63
2022-09-10T12:11:51.665Z,98404.53
2022-09-10T12:15:58.987Z,98397.22
2022-09-10T12:20:04.645Z,98399.91
2022-09-10T12:24:32.342Z,98401.34
2022-09-10T12:28:57.546Z,98394.34
2022-09-10T12:33:02.406Z,98395.31
2022-09-10T12:37:05.103Z,98372.72
2022-09-10T12:41:31.626Z,98368.34
2022-09-10T12:46:17.674Z,98359.84
2022-09-10T12:50:35.091Z,98363.44
2022-09-10T12:55:13.437Z,98363.25
2022-09-10T12:59:37.487Z,98354.31
2022-09-10T13:04:32.409Z,98350.50
2022-09-10T13:08:47.729Z,98341.88
2022-09-10T13:13:01.766Z,98333.22
2022-09-10T13:17:04.591Z,98343.91
2022-09-10T13:21:25.504Z,98340.16
2022-09-10T13:25:43.118Z,98338.88
2022-09-10T13:29:53.631Z,98340.06
2022-09-10T13:33:59.016Z,98333.44
2022-09-10T13:38:54.164Z,98325.66
2022-09-10T13:52:48.899Z,98323.47
2022-09-10T13:57:05.269Z,98318.53
2022-09-10T14:01:25.374Z,98319.25
2022-09-10T14:05:48.692Z,98323.97
2022-09-10T14:10:08.541Z,98312.84
2022-09-10T14:14:27.720Z,98319.50
2022-09-10T14:18:44.549Z,98318.81
2022-09-10T14:23:26.546Z,98318.91
2022-09-10T14:27:39.508Z,98306.91
2022-09-10T14:31:42.326Z,98307.13
2022-09-10T14:35:47.069Z,98299.53
2022-09-10T14:39:49.136Z,98301.63
2022-09-10T14:50:31.560Z,98303.75
2022-09-10T14:54:35.324Z,98302.91
2022-09-10T14:58:38.107Z,98311.78
2022-09-10T15:02:41.683Z,98303.38
2022-09-10T15:06:44.094Z,98295.75
2022-09-10T15:10:49.702Z,98293.91
2022-09-10T15:14:52.475Z,98281.16
2022-09-10T15:18:54.477Z,98289.25
2022-09-10T15:22:56.686Z,98282.75
2022-09-10T15:26:58.980Z,98280.94
2022-09-10T15:31:01.427Z,98283.66
2022-09-10T15:35:04.566Z,98292.25
2022-09-10T15:39:08.363Z,98289.78
2022-09-10T15:43:10.529Z,98293.97
2022-09-10T15:47:12.600Z,98307.94
2022-09-10T15:51:24.098Z,98308.88
2022-09-10T15:55:27.743Z,98303.13
2022-09-10T15:59:30.063Z,98302.72
2022-09-10T16:03:32.492Z,98310.25
2022-09-10T16:07:35.944Z,98308.94
2022-09-10T16:11:40.219Z,98325.38
2022-09-10T16:15:42.618Z,98314.53
2022-09-10T16:19:44.817Z,98310.78
2022-09-10T16:23:47.557Z,98318.94
2022-09-10T16:27:49.754Z,98319.41
2022-09-10T16:31:52.216Z,98321.84
2022-09-10T16:35:54.293Z,98323.00
2022-09-10T16:40:02.078Z,98322.69
2022-09-10T16:44:05.043Z,98319.16
2022-09-10T16:48:07.400Z,98316.00
2022-09-10T16:52:09.493Z,98319.53
2022-09-10T16:56:14.028Z,98314.31
2022-09-10T17:00:16.589Z,98311.16
2022-09-10T17:04:25.988Z,98308.00
2022-09-10T17:08:30.023Z,98311.00
2022-09-10T17:12:41.783Z,98309.56
2022-09-10T17:16:50.634Z,98310.56
2022-09-10T17:20:52.770Z,98316.09
2022-09-10T17:24:56.168Z,98317.16
2022-09-10T17:29:01.264Z,98320.47
2022-09-10T17:33:03.635Z,98315.06
2022-09-10T17:37:06.392Z,98315.72
2022-09-10T17:41:08.473Z,98322.53
2022-09-10T17:45:11.316Z,98324.09
2022-09-10T17:49:14.327Z,98322.25
2022-09-10T17:53:17.762Z,98322.19
2022-09-10T17:57:21.244Z,98327.31
2022-09-10T18:01:26.534Z,98332.88
2022-09-10T18:05:29.118Z,98346.59
2022-09-10T18:09:31.169Z,98353.81
2022-09-10T18:13:35.386Z,98360.81
2022-09-10T18:17:38.105Z,98360.75
2022-09-10T18:21:40.871Z,98355.78
2022-09-10T18:25:47.890Z,98367.16
2022-09-10T18:29:51.823Z,98370.50
2022-09-10T18:33:55.820Z,98382.91
2022-09-10T18:37:57.739Z,98387.81
2022-09-10T18:42:03.616Z,98390.41
2022-09-10T18:46:06.403Z,98406.16
2022-09-10T18:50:08.938Z,98409.69
2022-09-10T18:54:13.227Z,98398.34
2022-09-10T18:58:15.274Z,98415.34
2022-09-10T19:02:19.752Z,98406.69
2022-09-10T19:06:24.088Z,98421.66
2022-09-10T19:10:26.244Z,98415.16
2022-09-10T19:14:33.003Z,98419.66
2022-09-10T19:18:35.027Z,98425.75
2022-09-10T19:22:37.767Z,98420.25
2022-09-10T19:26:40.034Z,98420.66
2022-09-10T19:30:42.227Z,98417.81
2022-09-10T19:34:44.449Z,98423.28
2022-09-10T19:38:49.713Z,98417.25
2022-09-10T19:42:51.993Z,98424.25
2022-09-10T19:46:54.039Z,98422.84
2022-09-10T19:50:56.190Z,98428.13
2022-09-10T19:54:58.315Z,98424.13
2022-09-10T19:59:02.890Z,98427.16
2022-09-10T20:03:05.161Z,98430.03
2022-09-10T20:07:07.347Z,98422.53
2022-09-10T20:11:15.797Z,98429.69
2022-09-10T20:15:18.908Z,98436.66
2022-09-10T20:19:22.183Z,98437.50
2022-09-10T20:23:24.244Z,98439.84
2022-09-10T20:27:27.616Z,98433.97
2022-09-10T20:31:32.186Z,98439.13
2022-09-10T20:35:34.299Z,98440.84
2022-09-10T20:39:38.329Z,98446.38
2022-09-10T20:43:40.681Z,98445.09
2022-09-10T20:47:46.454Z,98457.00
2022-09-10T20:51:48.678Z,98459.81
2022-09-10T20:55:51.719Z,98456.47
2022-09-10T20:59:54.625Z,98451.56
2022-09-10T21:03:59.502Z,98455.91
2022-09-10T21:08:02.865Z,98452.63
2022-09-10T21:12:06.069Z,98454.22
2022-09-10T21:16:23.294Z,98456.84
2022-09-10T21:20:25.395Z,98451.19
2022-09-10T21:24:28.293Z,98461.25
2022-09-10T21:28:30.747Z,98461.75
2022-09-10T21:32:34.493Z,98454.41
2022-09-10T21:36:38.386Z,98467.06
2022-09-10T21:40:41.848Z,98463.03
2022-09-10T21:44:44.056Z,98466.03
2022-09-10T21:48:46.101Z,98470.28
2022-09-10T21:52:50.808Z,98470.34
2022-09-10T23:04:20.583Z,98484.75
2022-09-10T23:14:49.350Z,98481.53
2022-09-10T23:18:56.490Z,98490.41
2022-09-10T23:35:35.481Z,98495.75
2022-09-10T23:39:40.256Z,98492.34
2022-09-10T23:43:44.805Z,98496.53
2022-09-10T23:48:54.766Z,98494.94
2022-09-10T23:53:45.168Z,98489.72
2022-09-10T23:57:49.223Z,98490.75
